sensor_id;sensor_type;location;lat;lon;timestamp;pressure;altitude;pressure_sealevel;temperature;humidity
74433;BME280;62865;53.146;23.172;2022-10-16T00:04:00;1024.9;;;15.4;70.9
74433;BME280;62865;53.146;23.172;2022-10-16T00:08:41;1024.9;;;15.4;70.9
74433;BME280;62865;53.146;23.172;2022-10-16T00:14:23;1024.9;;;15.4;70.9
74433;BME280;62865;53.146;23.172;2022-10-16T00:19:23;1024.9;;;15.5;70.2
74433;BME280;62865;53.146;23.172;2022-10-16T00:24:06;1025;;;15.4;70.4
74433;BME280;62865;53.146;23.172;2022-10-16T00:29:23;1025;;;15.4;70.4
74433;BME280;62865;53.146;23.172;2022-10-16T00:34:17;1025;;;15.3;71.1
74433;BME280;62865;53.146;23.172;2022-10-16T00:39:09;1025;;;15.4;70.7
74433;BME280;62865;53.146;23.172;2022-10-16T00:44:00;1025.1;;;15.3;70.8
74433;BME280;62865;53.146;23.172;2022-10-16T00:49:05;1025.1;;;15.3;70.8
74433;BME280;62865;53.146;23.172;2022-10-16T00:53:41;1025.2;;;15.2;71
74433;BME280;62865;53.146;23.172;2022-10-16T00:58:53;1025.2;;;15.2;71.2
74433;BME280;62865;53.146;23.172;2022-10-16T01:03:49;1025.2;;;15.2;71.1
74433;BME280;62865;53.146;23.172;2022-10-16T01:14:13;1025.2;;;15.2;71.1
74433;BME280;62865;53.146;23.172;2022-10-16T01:19:07;1025.3;;;15.2;71
74433;BME280;62865;53.146;23.172;2022-10-16T01:24:06;1025.3;;;15.2;71
74433;BME280;62865;53.146;23.172;2022-10-16T01:29:05;1025.3;;;15.2;70.9
74433;BME280;62865;53.146;23.172;2022-10-16T01:38:54;1025.3;;;15.2;70.9
74433;BME280;62865;53.146;23.172;2022-10-16T01:43:53;1025.4;;;14.9;71.1
74433;BME280;62865;53.146;23.172;2022-10-16T01:48:55;1025.5;;;14.8;71.8
74433;BME280;62865;53.146;23.172;2022-10-16T01:54:13;1025.6;;;14.9;71.5
74433;BME280;62865;53.146;23.172;2022-10-16T01:59:04;1025.6;;;14.9;71.5
74433;BME280;62865;53.146;23.172;2022-10-16T02:04:18;1025.6;;;15.1;71.1
74433;BME280;62865;53.146;23.172;2022-10-16T02:14:00;1025.7;;;15.2;70.3
74433;BME280;62865;53.146;23.172;2022-10-16T02:19:12;1025.7;;;15.2;70.4
74433;BME280;62865;53.146;23.172;2022-10-16T02:24:24;1025.8;;;15.1;70.7
74433;BME280;62865;53.146;23.172;2022-10-16T02:28:42;1025.7;;;15;70.8
74433;BME280;62865;53.146;23.172;2022-10-16T02:33:54;1025.7;;;14.9;71
74433;BME280;62865;53.146;23.172;2022-10-16T02:38:51;1025.6;;;14.9;71.3
74433;BME280;62865;53.146;23.172;2022-10-16T02:44:21;1025.6;;;14.9;71.2
74433;BME280;62865;53.146;23.172;2022-10-16T02:59:03;1025.6;;;14.7;71.9
74433;BME280;62865;53.146;23.172;2022-10-16T03:04:17;1025.5;;;14.6;72.4
74433;BME280;62865;53.146;23.172;2022-10-16T03:09:27;1025.5;;;14.3;73.5
74433;BME280;62865;53.146;23.172;2022-10-16T03:14:03;1025.6;;;14.4;73.4
74433;BME280;62865;53.146;23.172;2022-10-16T03:18:41;1025.6;;;14.4;73.5
74433;BME280;62865;53.146;23.172;2022-10-16T03:23:53;1025.6;;;14.4;73.5
74433;BME280;62865;53.146;23.172;2022-10-16T03:29:05;1025.7;;;14.4;73.1
74433;BME280;62865;53.146;23.172;2022-10-16T03:34:05;1025.7;;;14.3;73.6
74433;BME280;62865;53.146;23.172;2022-10-16T03:39:03;1025.7;;;14.2;73.9
74433;BME280;62865;53.146;23.172;2022-10-16T03:44:27;1025.7;;;14.1;74.3
74433;BME280;62865;53.146;23.172;2022-10-16T03:49:27;1025.8;;;14.1;74.4
74433;BME280;62865;53.146;23.172;2022-10-16T03:53:41;1025.8;;;14.1;74.4
74433;BME280;62865;53.146;23.172;2022-10-16T03:59:29;1025.9;;;14.1;74.2
74433;BME280;62865;53.146;23.172;2022-10-16T04:04:27;1025.8;;;14.1;73.9
74433;BME280;62865;53.146;23.172;2022-10-16T04:09:25;1025.8;;;14;74
74433;BME280;62865;53.146;23.172;2022-10-16T04:13:41;1025.9;;;13.9;74.5
74433;BME280;62865;53.146;23.172;2022-10-16T04:18:41;1025.9;;;13.9;74.4
74433;BME280;62865;53.146;23.172;2022-10-16T04:24:29;1025.9;;;13.9;74.4
74433;BME280;62865;53.146;23.172;2022-10-16T04:29:17;1026;;;14;74.1
74433;BME280;62865;53.146;23.172;2022-10-16T04:34:07;1026;;;13.9;74.8
74433;BME280;62865;53.146;23.172;2022-10-16T04:39:19;1026;;;13.9;74.5
74433;BME280;62865;53.146;23.172;2022-10-16T04:44:15;1026;;;14;74
74433;BME280;62865;53.146;23.172;2022-10-16T04:49:05;1025.9;;;14;74.2
74433;BME280;62865;53.146;23.172;2022-10-16T04:54:15;1025.9;;;13.9;74.6
74433;BME280;62865;53.146;23.172;2022-10-16T04:59:29;1025.9;;;13.9;74.6
74433;BME280;62865;53.146;23.172;2022-10-16T05:03:41;1025.9;;;13.9;74.6
74433;BME280;62865;53.146;23.172;2022-10-16T05:09:05;1026.1;;;14.1;73.9
74433;BME280;62865;53.146;23.172;2022-10-16T05:14:29;1026.3;;;14;74.2
74433;BME280;62865;53.146;23.172;2022-10-16T05:19:19;1026.3;;;14;74.4
74433;BME280;62865;53.146;23.172;2022-10-16T05:24:29;1026.4;;;13.9;74.6
74433;BME280;62865;53.146;23.172;2022-10-16T05:29:05;1026.4;;;14;74.3
74433;BME280;62865;53.146;23.172;2022-10-16T05:34:20;1026.3;;;14;74.3
74433;BME280;62865;53.146;23.172;2022-10-16T05:39:29;1026.3;;;14;74
74433;BME280;62865;53.146;23.172;2022-10-16T05:44:17;1026.3;;;14;74.1
74433;BME280;62865;53.146;23.172;2022-10-16T05:48:51;1026.3;;;14;74.1
74433;BME280;62865;53.146;23.172;2022-10-16T05:53:55;1026.3;;;13.9;74.1
74433;BME280;62865;53.146;23.172;2022-10-16T05:58:57;1026.3;;;13.9;74.1
74433;BME280;62865;53.146;23.172;2022-10-16T06:04:08;1026.3;;;13.9;74.1
74433;BME280;62865;53.146;23.172;2022-10-16T06:09:03;1026.5;;;14;73.1
74433;BME280;62865;53.146;23.172;2022-10-16T06:14:30;1026.7;;;13.9;73.7
74433;BME280;62865;53.146;23.172;2022-10-16T06:19:29;1026.8;;;13.9;73.5
74433;BME280;62865;53.146;23.172;2022-10-16T06:24:05;1026.8;;;14.1;73
74433;BME280;62865;53.146;23.172;2022-10-16T06:29:29;1026.8;;;14.1;73
74433;BME280;62865;53.146;23.172;2022-10-16T06:38:44;1027;;;14.4;71.5
74433;BME280;62865;53.146;23.172;2022-10-16T06:43:55;1027.1;;;14.4;71.6
74433;BME280;62865;53.146;23.172;2022-10-16T06:48:41;1027.1;;;14.4;71.5
74433;BME280;62865;53.146;23.172;2022-10-16T06:59:17;1027.1;;;14.4;71.5
74433;BME280;62865;53.146;23.172;2022-10-16T07:04:17;1027.2;;;14.5;71.2
74433;BME280;62865;53.146;23.172;2022-10-16T07:09:19;1027.2;;;14.5;71.2
74433;BME280;62865;53.146;23.172;2022-10-16T07:14:16;1027.3;;;14.6;70.9
74433;BME280;62865;53.146;23.172;2022-10-16T07:19:17;1027.4;;;14.7;70.9
74433;BME280;62865;53.146;23.172;2022-10-16T07:24:16;1027.3;;;14.9;70.1
74433;BME280;62865;53.146;23.172;2022-10-16T07:29:27;1027.4;;;14.9;70.5
74433;BME280;62865;53.146;23.172;2022-10-16T07:33:42;1027.4;;;14.9;71.1
74433;BME280;62865;53.146;23.172;2022-10-16T07:38:55;1027.3;;;14.9;71.7
74433;BME280;62865;53.146;23.172;2022-10-16T07:43:55;1027.4;;;15.1;71.1
74433;BME280;62865;53.146;23.172;2022-10-16T07:49:27;1027.4;;;15.2;71
74433;BME280;62865;53.146;23.172;2022-10-16T07:54:29;1027.4;;;15.2;70.6
74433;BME280;62865;53.146;23.172;2022-10-16T07:59:05;1027.4;;;15.4;70.3
74433;BME280;62865;53.146;23.172;2022-10-16T08:04:29;1027.4;;;15.4;70.3
74433;BME280;62865;53.146;23.172;2022-10-16T08:09:17;1027.5;;;15.5;69.7
74433;BME280;62865;53.146;23.172;2022-10-16T08:13:57;1027.6;;;15.5;70
74433;BME280;62865;53.146;23.172;2022-10-16T08:19:07;1027.6;;;15.6;69.8
74433;BME280;62865;53.146;23.172;2022-10-16T08:23:57;1027.5;;;16;68.7
74433;BME280;62865;53.146;23.172;2022-10-16T08:28:54;1027.6;;;15.9;68.8
74433;BME280;62865;53.146;23.172;2022-10-16T08:34:17;1027.6;;;15.9;68.8
74433;BME280;62865;53.146;23.172;2022-10-16T08:38:43;1027.6;;;16.3;67.7
74433;BME280;62865;53.146;23.172;2022-10-16T08:44:24;1027.6;;;16.5;67.4
74433;BME280;62865;53.146;23.172;2022-10-16T08:48:46;1027.5;;;16.9;66.5
74433;BME280;62865;53.146;23.172;2022-10-16T08:54:31;1027.5;;;17.1;65.4
74433;BME280;62865;53.146;23.172;2022-10-16T08:59:09;1027.5;;;17.1;65.1
74433;BME280;62865;53.146;23.172;2022-10-16T09:04:48;1027.5;;;17.1;65.1
74433;BME280;62865;53.146;23.172;2022-10-16T09:09:36;1027.5;;;17.5;64.6
74433;BME280;62865;53.146;23.172;2022-10-16T09:13:47;1027.5;;;17.7;63.9
74433;BME280;62865;53.146;23.172;2022-10-16T09:18:45;1027.5;;;17.7;63.9
74433;BME280;62865;53.146;23.172;2022-10-16T09:23:44;1027.5;;;17.7;63.7
74433;BME280;62865;53.146;23.172;2022-10-16T09:29:18;1027.5;;;17.9;63.3
74433;BME280;62865;53.146;23.172;2022-10-16T09:34:20;1027.4;;;17.9;63.1
74433;BME280;62865;53.146;23.172;2022-10-16T09:39:11;1027.4;;;17.9;63.1
74433;BME280;62865;53.146;23.172;2022-10-16T09:44:18;1027.4;;;18.1;63
74433;BME280;62865;53.146;23.172;2022-10-16T09:49:19;1027.3;;;18.3;62.4
74433;BME280;62865;53.146;23.172;2022-10-16T09:54:20;1027.3;;;18.2;62.6
74433;BME280;62865;53.146;23.172;2022-10-16T09:59:31;1027.4;;;18.5;62.3
74433;BME280;62865;53.146;23.172;2022-10-16T10:03:43;1027.4;;;18.7;61.8
74433;BME280;62865;53.146;23.172;2022-10-16T10:09:00;1027.4;;;18.7;61.6
74433;BME280;62865;53.146;23.172;2022-10-16T10:14:03;1027.5;;;18.6;62.1
74433;BME280;62865;53.146;23.172;2022-10-16T10:19:37;1027.4;;;18.9;61.6
74433;BME280;62865;53.146;23.172;2022-10-16T10:24:33;1027.4;;;19.1;60.7
74433;BME280;62865;53.146;23.172;2022-10-16T10:29:11;1027.3;;;19.4;60.8
74433;BME280;62865;53.146;23.172;2022-10-16T10:34:36;1027.3;;;19.6;59.9
74433;BME280;62865;53.146;23.172;2022-10-16T10:44:01;1027.3;;;19.6;59.9
74433;BME280;62865;53.146;23.172;2022-10-16T10:49:12;1027.1;;;19.7;59.3
74433;BME280;62865;53.146;23.172;2022-10-16T10:54:13;1027.1;;;19.5;60
74433;BME280;62865;53.146;23.172;2022-10-16T10:59:01;1027.1;;;19.5;60
74433;BME280;62865;53.146;23.172;2022-10-16T11:04:27;1027.3;;;19.5;60.3
74433;BME280;62865;53.146;23.172;2022-10-16T11:08:45;1027.3;;;19.5;60.3
74433;BME280;62865;53.146;23.172;2022-10-16T11:14:30;1027;;;19.8;59.4
74433;BME280;62865;53.146;23.172;2022-10-16T11:19:35;1027;;;19.8;59.6
74433;BME280;62865;53.146;23.172;2022-10-16T11:24:11;1026.9;;;19.9;59.6
74433;BME280;62865;53.146;23.172;2022-10-16T11:29:10;1027;;;19.8;59.5
74433;BME280;62865;53.146;23.172;2022-10-16T11:34:33;1027.1;;;19.7;59.8
74433;BME280;62865;53.146;23.172;2022-10-16T11:39:30;1027;;;19.7;59.8
74433;BME280;62865;53.146;23.172;2022-10-16T11:44:02;1027.1;;;19.7;59.6
74433;BME280;62865;53.146;23.172;2022-10-16T11:49:00;1027.1;;;19.7;59.7
74433;BME280;62865;53.146;23.172;2022-10-16T11:53:59;1027.1;;;19.7;59.7
74433;BME280;62865;53.146;23.172;2022-10-16T11:59:21;1027.1;;;19.8;59.2
74433;BME280;62865;53.146;23.172;2022-10-16T12:04:21;1027.2;;;19.5;60
74433;BME280;62865;53.146;23.172;2022-10-16T12:14:39;1027.2;;;19.5;60
74433;BME280;62865;53.146;23.172;2022-10-16T12:19:22;1027.4;;;19.9;59.3
74433;BME280;62865;53.146;23.172;2022-10-16T12:23:52;1027.4;;;19.9;59.3
74433;BME280;62865;53.146;23.172;2022-10-16T12:29:23;1027.4;;;19.9;59.3
74433;BME280;62865;53.146;23.172;2022-10-16T12:34:36;1027.3;;;20.1;58.8
74433;BME280;62865;53.146;23.172;2022-10-16T12:38:45;1027.2;;;20.2;58.5
74433;BME280;62865;53.146;23.172;2022-10-16T12:54:22;1027.3;;;20.2;58.7
74433;BME280;62865;53.146;23.172;2022-10-16T12:59:29;1027.4;;;20;59.1
74433;BME280;62865;53.146;23.172;2022-10-16T13:04:11;1027.4;;;19.9;59.4
74433;BME280;62865;53.146;23.172;2022-10-16T13:09:33;1027.4;;;19.8;59.3
74433;BME280;62865;53.146;23.172;2022-10-16T13:14:33;1027.4;;;19.7;59.5
74433;BME280;62865;53.146;23.172;2022-10-16T13:19:08;1027.4;;;19.7;59.5
74433;BME280;62865;53.146;23.172;2022-10-16T13:23:51;1027.4;;;19.6;59.7
74433;BME280;62865;53.146;23.172;2022-10-16T13:34:20;1027.4;;;19.6;59.7
74433;BME280;62865;53.146;23.172;2022-10-16T13:39:11;1027.4;;;19.5;59.9
74433;BME280;62865;53.146;23.172;2022-10-16T13:43:54;1027.4;;;19.5;60.5
74433;BME280;62865;53.146;23.172;2022-10-16T13:49:34;1027.4;;;19.6;60.4
74433;BME280;62865;53.146;23.172;2022-10-16T13:54:34;1027.3;;;19.7;60.3
74433;BME280;62865;53.146;23.172;2022-10-16T13:59:22;1027.3;;;19.7;60.2
74433;BME280;62865;53.146;23.172;2022-10-16T14:04:31;1027.4;;;19.6;60.4
74433;BME280;62865;53.146;23.172;2022-10-16T14:09:34;1027.4;;;19.6;60.4
74433;BME280;62865;53.146;23.172;2022-10-16T14:14:34;1027.4;;;19.3;61.1
74433;BME280;62865;53.146;23.172;2022-10-16T14:18:59;1027.4;;;19.4;60.7
74433;BME280;62865;53.146;23.172;2022-10-16T14:24:22;1027.4;;;19.4;60.7
74433;BME280;62865;53.146;23.172;2022-10-16T14:29:30;1027.3;;;19.4;60.5
74433;BME280;62865;53.146;23.172;2022-10-16T14:34:26;1027.3;;;19.4;60.5
74433;BME280;62865;53.146;23.172;2022-10-16T14:39:14;1027.4;;;19.1;61
74433;BME280;62865;53.146;23.172;2022-10-16T14:44:23;1027.5;;;18.9;61.5
74433;BME280;62865;53.146;23.172;2022-10-16T14:49:20;1027.6;;;18.9;61.9
74433;BME280;62865;53.146;23.172;2022-10-16T14:53:44;1027.7;;;18.9;61.8
74433;BME280;62865;53.146;23.172;2022-10-16T14:59:19;1027.8;;;18.8;62.1
74433;BME280;62865;53.146;23.172;2022-10-16T15:04:34;1027.9;;;18.7;62.5
74433;BME280;62865;53.146;23.172;2022-10-16T15:08:58;1027.9;;;18.7;62.6
74433;BME280;62865;53.146;23.172;2022-10-16T15:13:58;1027.9;;;18.6;62.9
74433;BME280;62865;53.146;23.172;2022-10-16T15:19:34;1027.8;;;18.5;63.1
74433;BME280;62865;53.146;23.172;2022-10-16T15:24:24;1027.9;;;18.3;63.7
74433;BME280;62865;53.146;23.172;2022-10-16T15:29:32;1028;;;18.3;63.8
74433;BME280;62865;53.146;23.172;2022-10-16T15:34:20;1028;;;18.3;63.9
74433;BME280;62865;53.146;23.172;2022-10-16T15:39:22;1028.1;;;18.3;63.9
74433;BME280;62865;53.146;23.172;2022-10-16T15:44:32;1028.1;;;18.2;64.1
74433;BME280;62865;53.146;23.172;2022-10-16T15:49:09;1028.1;;;18.2;64.1
74433;BME280;62865;53.146;23.172;2022-10-16T15:54:08;1028.1;;;17.9;65.1
74433;BME280;62865;53.146;23.172;2022-10-16T15:58:58;1028.1;;;17.8;65.8
74433;BME280;62865;53.146;23.172;2022-10-16T16:04:00;1028.2;;;17.9;65.7
74433;BME280;62865;53.146;23.172;2022-10-16T16:08:54;1028.2;;;17.8;65.8
74433;BME280;62865;53.146;23.172;2022-10-16T16:14:08;1028.3;;;18.1;65.3
74433;BME280;62865;53.146;23.172;2022-10-16T16:19:32;1028.3;;;18;65.7
74433;BME280;62865;53.146;23.172;2022-10-16T16:24:30;1028.3;;;18;65.5
74433;BME280;62865;53.146;23.172;2022-10-16T16:34:32;1028.5;;;18;65.6
74433;BME280;62865;53.146;23.172;2022-10-16T16:39:20;1028.5;;;18;65.6
74433;BME280;62865;53.146;23.172;2022-10-16T16:44:30;1028.5;;;18;66
74433;BME280;62865;53.146;23.172;2022-10-16T16:48:54;1028.5;;;18;66
74433;BME280;62865;53.146;23.172;2022-10-16T16:54:20;1028.5;;;17.9;66.3
74433;BME280;62865;53.146;23.172;2022-10-16T16:58:58;1028.5;;;17.8;66.9
74433;BME280;62865;53.146;23.172;2022-10-16T17:04:18;1028.5;;;17.8;66.9
74433;BME280;62865;53.146;23.172;2022-10-16T17:09:06;1028.5;;;17.8;67.2
74433;BME280;62865;53.146;23.172;2022-10-16T17:14:22;1028.6;;;17.7;67.4
74433;BME280;62865;53.146;23.172;2022-10-16T17:19:16;1028.5;;;17.8;67.7
74433;BME280;62865;53.146;23.172;2022-10-16T17:24:16;1028.5;;;17.8;67.7
74433;BME280;62865;53.146;23.172;2022-10-16T17:34:30;1028.5;;;17.8;67.6
74433;BME280;62865;53.146;23.172;2022-10-16T17:38:58;1028.5;;;17.8;67.6
74433;BME280;62865;53.146;23.172;2022-10-16T17:43:44;1028.7;;;17.6;68.1
74433;BME280;62865;53.146;23.172;2022-10-16T17:48:44;1028.8;;;17.8;67.7
74433;BME280;62865;53.146;23.172;2022-10-16T17:54:06;1028.8;;;17.8;67.5
74433;BME280;62865;53.146;23.172;2022-10-16T17:59:30;1028.9;;;17.8;67.5
74433;BME280;62865;53.146;23.172;2022-10-16T18:04:09;1028.9;;;17.8;67.3
74433;BME280;62865;53.146;23.172;2022-10-16T18:09:28;1028.9;;;17.8;67.4
74433;BME280;62865;53.146;23.172;2022-10-16T18:14:18;1029;;;17.9;67.2
74433;BME280;62865;53.146;23.172;2022-10-16T18:19:08;1028.9;;;17.9;66.7
74433;BME280;62865;53.146;23.172;2022-10-16T18:23:59;1029;;;17.8;67.1
74433;BME280;62865;53.146;23.172;2022-10-16T18:28:58;1029;;;17.8;67.4
74433;BME280;62865;53.146;23.172;2022-10-16T18:34:00;1029;;;17.8;67.3
74433;BME280;62865;53.146;23.172;2022-10-16T18:38:44;1029.1;;;17.8;67.2
74433;BME280;62865;53.146;23.172;2022-10-16T18:43:58;1029.1;;;17.7;67.4
74433;BME280;62865;53.146;23.172;2022-10-16T18:49:32;1029.1;;;17.7;67.4
74433;BME280;62865;53.146;23.172;2022-10-16T18:54:20;1029.2;;;17.8;67.4
74433;BME280;62865;53.146;23.172;2022-10-16T18:59:08;1029.2;;;17.8;67.4
74433;BME280;62865;53.146;23.172;2022-10-16T19:04:09;1029.3;;;17.8;67.3
74433;BME280;62865;53.146;23.172;2022-10-16T19:09:19;1029.3;;;17.8;67.3
74433;BME280;62865;53.146;23.172;2022-10-16T19:23:58;1029.3;;;17.6;67.2
74433;BME280;62865;53.146;23.172;2022-10-16T19:29:08;1029.3;;;17.3;68.5
74433;BME280;62865;53.146;23.172;2022-10-16T19:34:22;1029.3;;;17.3;68.5
74433;BME280;62865;53.146;23.172;2022-10-16T19:44:28;1029.5;;;17.4;68
74433;BME280;62865;53.146;23.172;2022-10-16T19:49:18;1029.5;;;17.3;68.6
74433;BME280;62865;53.146;23.172;2022-10-16T19:54:20;1029.5;;;17.4;68.4
74433;BME280;62865;53.146;23.172;2022-10-16T19:59:06;1029.5;;;17.4;68.4
74433;BME280;62865;53.146;23.172;2022-10-16T20:04:32;1029.6;;;17.6;67.8
74433;BME280;62865;53.146;23.172;2022-10-16T20:13:44;1029.6;;;17.6;67.8
74433;BME280;62865;53.146;23.172;2022-10-16T20:18:58;1029.8;;;17.4;68.1
74433;BME280;62865;53.146;23.172;2022-10-16T20:24:30;1029.8;;;17.4;68.1
74433;BME280;62865;53.146;23.172;2022-10-16T20:34:09;1030;;;17.1;69.1
74433;BME280;62865;53.146;23.172;2022-10-16T20:39:34;1030;;;17.1;69.1
74433;BME280;62865;53.146;23.172;2022-10-16T20:44:20;1030;;;17.1;69.5
74433;BME280;62865;53.146;23.172;2022-10-16T20:49:10;1030;;;17.1;69.5
74433;BME280;62865;53.146;23.172;2022-10-16T20:54:10;1030.1;;;17.4;68.6
74433;BME280;62865;53.146;23.172;2022-10-16T20:58:58;1030.2;;;17.3;68.9
74433;BME280;62865;53.146;23.172;2022-10-16T21:03:48;1030.3;;;17.5;68.5
74433;BME280;62865;53.146;23.172;2022-10-16T21:08:44;1030.2;;;17.6;68.3
74433;BME280;62865;53.146;23.172;2022-10-16T21:14:10;1030.3;;;17.7;67.9
74433;BME280;62865;53.146;23.172;2022-10-16T21:18:44;1030.3;;;17.6;68
74433;BME280;62865;53.146;23.172;2022-10-16T21:24:32;1030.3;;;17.6;68
74433;BME280;62865;53.146;23.172;2022-10-16T21:39:32;1030.5;;;17.4;68.8
74433;BME280;62865;53.146;23.172;2022-10-16T21:44:20;1030.5;;;17.4;68.8
74433;BME280;62865;53.146;23.172;2022-10-16T21:49:34;1030.5;;;17.2;69.6
74433;BME280;62865;53.146;23.172;2022-10-16T21:53:58;1030.6;;;17.2;69.8
74433;BME280;62865;53.146;23.172;2022-10-16T21:58:56;1030.5;;;17.2;69.4
74433;BME280;62865;53.146;23.172;2022-10-16T22:09:20;1030.5;;;17.2;69.4
74433;BME280;62865;53.146;23.172;2022-10-16T22:14:07;1030.6;;;16.9;70.8
74433;BME280;62865;53.146;23.172;2022-10-16T22:19:12;1030.6;;;16.9;70.8
74433;BME280;62865;53.146;23.172;2022-10-16T22:23:46;1030.6;;;16.9;70.7
74433;BME280;62865;53.146;23.172;2022-10-16T22:28:58;1030.7;;;16.9;71.2
74433;BME280;62865;53.146;23.172;2022-10-16T22:34:20;1030.7;;;16.9;71.1
74433;BME280;62865;53.146;23.172;2022-10-16T22:43:58;1030.7;;;16.9;71.1
74433;BME280;62865;53.146;23.172;2022-10-16T22:48:58;1030.8;;;16.9;71.1
74433;BME280;62865;53.146;23.172;2022-10-16T22:54:32;1030.9;;;16.9;71.3
74433;BME280;62865;53.146;23.172;2022-10-16T22:59:20;1031;;;16.9;71.4
74433;BME280;62865;53.146;23.172;2022-10-16T23:04:28;1031;;;17;71.1
74433;BME280;62865;53.146;23.172;2022-10-16T23:09:08;1031;;;16.9;71.2
74433;BME280;62865;53.146;23.172;2022-10-16T23:14:20;1031;;;16.9;71.4
74433;BME280;62865;53.146;23.172;2022-10-16T23:19:30;1031;;;16.9;71.7
74433;BME280;62865;53.146;23.172;2022-10-16T23:23:44;1031;;;16.9;71.7
74433;BME280;62865;53.146;23.172;2022-10-16T23:28:50;1031.2;;;16.8;72
74433;BME280;62865;53.146;23.172;2022-10-16T23:39:08;1031.2;;;16.8;72
74433;BME280;62865;53.146;23.172;2022-10-16T23:44:06;1031.3;;;17;71.5
74433;BME280;62865;53.146;23.172;2022-10-16T23:49:08;1031.3;;;16.9;72
74433;BME280;62865;53.146;23.172;2022-10-16T23:54:26;1031.4;;;16.9;72.4
74433;BME280;62865;53.146;23.172;2022-10-16T23:59:26;1031.5;;;16.8;72.8
